Time;durP1;ratioP1;P1;durP2;ratioP2;P2;SDS_P1;SDS_P2;PMS_P1;PMS_P2;Temp;Humidity;BMP_temperature;BMP_pressure;BME280_temperature;BME280_humidity;BME280_pressure;Samples;Min_cycle;Max_cycle;Signal;HPM_P1;HPM_P2
2023/06/24 00:00:23;;;;;;;2.63;2.53;;;;;;;;;;5088155;28;20268;-71
2023/06/24 00:02:51;;;;;;;2.75;2.65;;;;;;;;;;5089471;28;20723;-69
2023/06/24 00:05:18;;;;;;;3.55;2.30;;;;;;;;;;5103079;28;20290;-69
2023/06/24 00:07:45;;;;;;;3.03;2.55;;;;;;;;;;5107821;28;20202;-69
2023/06/24 00:10:13;;;;;;;2.58;2.38;;;;;;;;;;5108282;28;20198;-69
2023/06/24 00:12:41;;;;;;;2.80;2.60;;;;;;;;;;5105647;28;20500;-68
2023/06/24 00:15:10;;;;;;;2.60;2.50;;;;;;;;;;5107428;28;20304;-68
2023/06/24 00:17:37;;;;;;;2.80;2.70;;;;;;;;;;5108257;28;20260;-69
2023/06/24 00:20:07;;;;;;;3.17;2.72;;;;;;;;;;5105314;28;20210;-69
2023/06/24 00:22:34;;;;;;;2.38;2.28;;;;;;;;;;5105134;28;20225;-68
2023/06/24 00:25:01;;;;;;;2.80;2.70;;;;;;;;;;5093820;28;20224;-69
2023/06/24 00:27:28;;;;;;;2.80;2.60;;;;;;;;;;5108122;28;20650;-69
2023/06/24 00:29:55;;;;;;;2.97;2.78;;;;;;;;;;5102366;28;20306;-69
2023/06/24 00:32:23;;;;;;;2.75;2.38;;;;;;;;;;5087788;28;20202;-69
2023/06/24 00:34:50;;;;;;;3.97;2.70;;;;;;;;;;5089224;28;20210;-68
2023/06/24 00:37:17;;;;;;;3.33;2.35;;;;;;;;;;5087943;28;20255;-69
2023/06/24 00:39:44;;;;;;;2.92;2.72;;;;;;;;;;5088759;28;20268;-69
2023/06/24 00:42:11;;;;;;;2.70;2.60;;;;;;;;;;5105813;28;20213;-69
2023/06/24 00:44:39;;;;;;;2.97;2.58;;;;;;;;;;5110032;28;20621;-69
2023/06/24 00:47:08;;;;;;;2.80;2.60;;;;;;;;;;5109079;28;20668;-69
2023/06/24 00:49:36;;;;;;;3.22;3.03;;;;;;;;;;5111097;28;20719;-69
2023/06/24 00:52:03;;;;;;;2.80;2.67;;;;;;;;;;5101222;28;20471;-69
2023/06/24 00:54:31;;;;;;;2.58;2.47;;;;;;;;;;5091936;28;20293;-69
2023/06/24 00:57:00;;;;;;;3.13;2.80;;;;;;;;;;5091260;28;20234;-69
2023/06/24 00:59:29;;;;;;;2.75;2.65;;;;;;;;;;5088491;28;20338;-68
2023/06/24 01:01:57;;;;;;;2.42;2.33;;;;;;;;;;5089636;28;20238;-68
2023/06/24 01:04:25;;;;;;;2.70;2.50;;;;;;;;;;5089195;28;20673;-68
2023/06/24 01:06:54;;;;;;;2.63;2.42;;;;;;;;;;5093574;28;20822;-69
2023/06/24 01:09:22;;;;;;;2.72;2.55;;;;;;;;;;5110927;28;20230;-68
2023/06/24 01:11:50;;;;;;;2.55;2.45;;;;;;;;;;5110778;28;20232;-68
2023/06/24 01:14:19;;;;;;;2.72;2.53;;;;;;;;;;5110544;28;20201;-69
2023/06/24 01:16:53;;;;;;;3.42;2.92;;;;;;;;;;5109741;28;20570;-69
2023/06/24 01:19:30;;;;;;;2.70;2.50;;;;;;;;;;5102149;28;20209;-69
2023/06/24 01:22:03;;;;;;;2.80;2.55;;;;;;;;;;5098325;28;20233;-69
2023/06/24 01:24:38;;;;;;;2.80;2.67;;;;;;;;;;5110674;28;20198;-69
2023/06/24 01:27:25;;;;;;;3.10;3.00;;;;;;;;;;5100428;28;20247;-69
2023/06/24 01:30:16;;;;;;;6.05;3.35;;;;;;;;;;5039423;28;20628;-68
2023/06/24 01:32:47;;;;;;;3.13;2.92;;;;;;;;;;5093382;28;20648;-68
2023/06/24 01:35:20;;;;;;;2.70;2.60;;;;;;;;;;5090906;28;20211;-69
2023/06/24 01:37:50;;;;;;;2.78;2.60;;;;;;;;;;5090166;28;20202;-68
2023/06/24 01:40:20;;;;;;;3.20;2.95;;;;;;;;;;5093353;28;20315;-69
2023/06/24 01:42:48;;;;;;;2.95;2.75;;;;;;;;;;5098485;28;20202;-68
2023/06/24 01:45:16;;;;;;;3.70;2.58;;;;;;;;;;5089988;28;20198;-68
2023/06/24 01:47:45;;;;;;;2.60;2.35;;;;;;;;;;5091580;28;20290;-69
2023/06/24 01:50:14;;;;;;;3.10;2.90;;;;;;;;;;5102286;28;20279;-69
2023/06/24 01:52:43;;;;;;;3.30;3.10;;;;;;;;;;5108801;28;20241;-69
2023/06/24 01:55:11;;;;;;;2.75;2.65;;;;;;;;;;5100134;28;20293;-69
2023/06/24 01:57:38;;;;;;;3.60;3.30;;;;;;;;;;5091160;28;20805;-69
2023/06/24 02:00:07;;;;;;;2.97;2.78;;;;;;;;;;5089800;28;20211;-68
2023/06/24 02:02:35;;;;;;;2.78;2.67;;;;;;;;;;5089669;28;20237;-69
2023/06/24 02:05:03;;;;;;;3.40;2.88;;;;;;;;;;5101728;28;20298;-68
2023/06/24 02:07:31;;;;;;;2.88;2.67;;;;;;;;;;5106619;28;20275;-68
2023/06/24 02:09:59;;;;;;;2.90;2.80;;;;;;;;;;5093548;28;20300;-68
2023/06/24 02:12:27;;;;;;;2.63;2.53;;;;;;;;;;5109924;28;20214;-69
2023/06/24 02:14:55;;;;;;;2.50;2.40;;;;;;;;;;5107735;28;20258;-69
2023/06/24 02:17:23;;;;;;;2.67;2.58;;;;;;;;;;5089933;28;20562;-68
2023/06/24 02:19:51;;;;;;;2.88;2.50;;;;;;;;;;5093339;28;20199;-68
2023/06/24 02:22:18;;;;;;;2.83;2.72;;;;;;;;;;5089134;28;20225;-68
2023/06/24 02:24:47;;;;;;;2.90;2.70;;;;;;;;;;5094824;28;20574;-69
2023/06/24 02:27:15;;;;;;;2.60;2.50;;;;;;;;;;5092276;28;20264;-68
2023/06/24 02:29:42;;;;;;;3.58;3.30;;;;;;;;;;5089058;28;20249;-69
2023/06/24 02:32:10;;;;;;;3.13;2.92;;;;;;;;;;5107733;28;20857;-69
2023/06/24 02:34:37;;;;;;;3.03;2.83;;;;;;;;;;5106764;28;20210;-68
2023/06/24 02:37:04;;;;;;;3.10;2.90;;;;;;;;;;5088673;28;20209;-68
2023/06/24 02:39:31;;;;;;;3.17;2.88;;;;;;;;;;5088977;28;20198;-68
2023/06/24 02:42:00;;;;;;;2.70;2.60;;;;;;;;;;5088627;28;20645;-69
2023/06/24 02:44:27;;;;;;;3.22;2.92;;;;;;;;;;5088504;28;20290;-68
2023/06/24 02:46:54;;;;;;;2.67;2.47;;;;;;;;;;5101548;28;20206;-69
2023/06/24 02:49:22;;;;;;;2.80;2.60;;;;;;;;;;5105485;28;20773;-69
2023/06/24 02:51:49;;;;;;;6.93;3.03;;;;;;;;;;5096392;28;20205;-69
2023/06/24 02:54:16;;;;;;;3.22;3.03;;;;;;;;;;5093398;28;20218;-69
2023/06/24 02:56:44;;;;;;;3.08;2.88;;;;;;;;;;5107088;28;20211;-68
2023/06/24 02:59:13;;;;;;;2.70;2.60;;;;;;;;;;5108982;28;20198;-69
2023/06/24 03:01:45;;;;;;;3.00;2.80;;;;;;;;;;5108868;28;20235;-68
2023/06/24 03:04:12;;;;;;;3.20;2.90;;;;;;;;;;5099224;28;20226;-68
2023/06/24 03:06:40;;;;;;;3.58;3.28;;;;;;;;;;5089874;28;20252;-68
2023/06/24 03:09:07;;;;;;;2.58;2.47;;;;;;;;;;5102228;28;20221;-68
2023/06/24 03:11:41;;;;;;;2.55;2.45;;;;;;;;;;5108696;28;20397;-68
2023/06/24 03:14:08;;;;;;;2.75;2.65;;;;;;;;;;5102076;28;20220;-68
2023/06/24 03:16:38;;;;;;;4.20;2.90;;;;;;;;;;5088883;28;20267;-69
2023/06/24 03:19:05;;;;;;;2.85;2.70;;;;;;;;;;5101885;28;20212;-68
2023/06/24 03:21:32;;;;;;;2.70;2.60;;;;;;;;;;5104907;28;20762;-68
2023/06/24 03:23:59;;;;;;;2.88;2.67;;;;;;;;;;5093967;28;20342;-68
2023/06/24 03:26:27;;;;;;;3.10;2.90;;;;;;;;;;5089367;28;20208;-68
2023/06/24 03:28:54;;;;;;;3.08;2.88;;;;;;;;;;5087745;28;20226;-69
2023/06/24 03:31:23;;;;;;;3.38;3.10;;;;;;;;;;5087776;28;20202;-68
2023/06/24 03:33:51;;;;;;;3.13;2.90;;;;;;;;;;5096076;28;20206;-69
2023/06/24 03:36:18;;;;;;;3.17;2.97;;;;;;;;;;5106989;28;20795;-68
2023/06/24 03:38:45;;;;;;;3.00;2.80;;;;;;;;;;5096974;28;20659;-68
2023/06/24 03:41:12;;;;;;;3.42;3.22;;;;;;;;;;5105860;28;20194;-69
2023/06/24 03:43:41;;;;;;;4.97;2.72;;;;;;;;;;5104008;28;20233;-67
2023/06/24 03:46:08;;;;;;;2.75;2.60;;;;;;;;;;5105774;28;20217;-65
2023/06/24 03:48:36;;;;;;;2.90;2.80;;;;;;;;;;5106671;28;20210;-66
2023/06/24 03:51:05;;;;;;;2.90;2.80;;;;;;;;;;5108252;28;20286;-66
2023/06/24 03:53:32;;;;;;;3.05;2.85;;;;;;;;;;5087359;28;20206;-67
2023/06/24 03:56:01;;;;;;;3.08;2.90;;;;;;;;;;5106319;28;20216;-67
2023/06/24 03:58:28;;;;;;;2.67;2.40;;;;;;;;;;5108212;28;20213;-67
2023/06/24 04:00:56;;;;;;;3.15;2.95;;;;;;;;;;5094831;28;20630;-66
2023/06/24 04:03:25;;;;;;;3.20;3.00;;;;;;;;;;5100214;28;20255;-67
2023/06/24 04:05:52;;;;;;;3.80;3.50;;;;;;;;;;5108598;28;20209;-67
2023/06/24 04:08:21;;;;;;;2.58;2.47;;;;;;;;;;5088904;28;20215;-66
2023/06/24 04:10:48;;;;;;;3.50;2.67;;;;;;;;;;5089482;28;20238;-67
2023/06/24 04:13:15;;;;;;;2.80;2.60;;;;;;;;;;5095920;28;20201;-67
2023/06/24 04:15:42;;;;;;;5.97;3.55;;;;;;;;;;5088637;28;20217;-66
2023/06/24 04:18:09;;;;;;;3.15;2.95;;;;;;;;;;5091889;28;20199;-66
2023/06/24 04:20:36;;;;;;;3.15;3.00;;;;;;;;;;5094671;28;20263;-73
2023/06/24 04:23:03;;;;;;;3.10;2.90;;;;;;;;;;5100151;28;20206;-73
2023/06/24 04:25:32;;;;;;;3.00;2.88;;;;;;;;;;5097807;28;20200;-74
2023/06/24 04:27:59;;;;;;;4.40;2.92;;;;;;;;;;5110790;28;20198;-73
2023/06/24 04:30:26;;;;;;;3.45;3.00;;;;;;;;;;5097050;28;20234;-73
2023/06/24 04:32:53;;;;;;;3.28;3.08;;;;;;;;;;5105112;28;20201;-74
2023/06/24 04:35:20;;;;;;;3.10;2.90;;;;;;;;;;5099446;28;20206;-74
2023/06/24 04:37:49;;;;;;;3.00;2.80;;;;;;;;;;5104851;28;20225;-75
2023/06/24 04:40:16;;;;;;;3.78;3.45;;;;;;;;;;5093873;28;20699;-71
2023/06/24 04:42:44;;;;;;;3.45;3.17;;;;;;;;;;5112535;28;20637;-70
2023/06/24 04:45:11;;;;;;;4.18;3.88;;;;;;;;;;5101869;28;20661;-71
2023/06/24 04:47:38;;;;;;;3.47;3.28;;;;;;;;;;5093757;28;20255;-71
2023/06/24 04:50:06;;;;;;;4.30;3.33;;;;;;;;;;5092377;28;20276;-72
2023/06/24 04:52:33;;;;;;;3.00;2.90;;;;;;;;;;5098620;28;20206;-71
2023/06/24 04:55:00;;;;;;;3.13;2.92;;;;;;;;;;5091942;28;20205;-71
2023/06/24 04:57:28;;;;;;;4.38;3.45;;;;;;;;;;5098145;28;20204;-72
2023/06/24 04:59:56;;;;;;;3.40;3.17;;;;;;;;;;5099419;28;20198;-71
2023/06/24 05:02:23;;;;;;;3.22;3.13;;;;;;;;;;5108884;28;20201;-71
2023/06/24 05:04:50;;;;;;;2.85;2.67;;;;;;;;;;5110862;28;20240;-71
2023/06/24 05:07:17;;;;;;;3.40;3.10;;;;;;;;;;5110222;28;20202;-71
2023/06/24 05:09:45;;;;;;;3.30;3.10;;;;;;;;;;5094081;28;20235;-72
2023/06/24 05:12:12;;;;;;;3.42;3.25;;;;;;;;;;5102338;28;20260;-72
2023/06/24 05:14:39;;;;;;;3.90;3.58;;;;;;;;;;5092688;28;20668;-72
2023/06/24 05:17:07;;;;;;;3.58;3.28;;;;;;;;;;5092036;28;20205;-71
2023/06/24 05:19:34;;;;;;;4.50;4.20;;;;;;;;;;5096095;28;20202;-71
2023/06/24 05:22:01;;;;;;;4.47;4.13;;;;;;;;;;5096831;28;20279;-72
2023/06/24 05:24:28;;;;;;;4.40;3.42;;;;;;;;;;5102568;28;20255;-71
2023/06/24 05:26:55;;;;;;;3.92;3.63;;;;;;;;;;5107199;28;20213;-71
2023/06/24 05:29:22;;;;;;;3.70;3.50;;;;;;;;;;5108009;28;20205;-71
2023/06/24 05:31:49;;;;;;;3.92;3.35;;;;;;;;;;5099022;28;20210;-71
2023/06/24 05:34:18;;;;;;;6.47;3.90;;;;;;;;;;5102880;28;20199;-71
2023/06/24 05:36:45;;;;;;;3.45;3.28;;;;;;;;;;5096038;28;20263;-71
2023/06/24 05:39:12;;;;;;;4.22;3.88;;;;;;;;;;5091202;28;20255;-72
2023/06/24 05:41:39;;;;;;;3.97;3.67;;;;;;;;;;5103009;28;20197;-71
2023/06/24 05:44:08;;;;;;;4.65;4.28;;;;;;;;;;5109245;27;20206;-71
2023/06/24 05:46:36;;;;;;;4.10;3.70;;;;;;;;;;5091013;28;20203;-70
2023/06/24 05:49:03;;;;;;;4.70;3.95;;;;;;;;;;5091202;28;20268;-71
2023/06/24 05:51:31;;;;;;;4.18;3.80;;;;;;;;;;5099044;28;20226;-71
2023/06/24 05:53:58;;;;;;;4.60;4.20;;;;;;;;;;5104103;28;20202;-71
2023/06/24 05:56:26;;;;;;;3.78;3.55;;;;;;;;;;5092222;28;20198;-71
2023/06/24 05:58:53;;;;;;;3.88;3.58;;;;;;;;;;5103560;28;20270;-72
2023/06/24 06:01:20;;;;;;;3.67;3.47;;;;;;;;;;5091869;28;20688;-71
2023/06/24 06:03:47;;;;;;;3.92;3.72;;;;;;;;;;5091625;28;20230;-71
2023/06/24 06:06:14;;;;;;;4.40;4.00;;;;;;;;;;5092257;28;20198;-71
2023/06/24 06:08:43;;;;;;;3.65;3.45;;;;;;;;;;5104665;28;20210;-71
2023/06/24 06:11:10;;;;;;;4.00;3.70;;;;;;;;;;5090355;28;20719;-71
2023/06/24 06:13:37;;;;;;;3.80;3.50;;;;;;;;;;5090785;28;20206;-72
2023/06/24 06:16:04;;;;;;;4.63;4.25;;;;;;;;;;5095074;28;20376;-71
2023/06/24 06:18:31;;;;;;;3.80;3.60;;;;;;;;;;5108515;28;20259;-71
2023/06/24 06:20:58;;;;;;;3.97;3.67;;;;;;;;;;5100934;28;20268;-70
2023/06/24 06:23:25;;;;;;;4.32;3.67;;;;;;;;;;5110456;28;20274;-70
2023/06/24 06:25:54;;;;;;;5.28;3.78;;;;;;;;;;5100871;28;20289;-70
2023/06/24 06:28:21;;;;;;;4.43;4.03;;;;;;;;;;5090471;28;20562;-68
2023/06/24 06:30:48;;;;;;;4.00;3.70;;;;;;;;;;5101600;28;20230;-76
2023/06/24 06:33:15;;;;;;;4.03;3.63;;;;;;;;;;5100543;27;20571;-79
2023/06/24 06:35:42;;;;;;;4.47;4.05;;;;;;;;;;5108245;28;20189;-73
2023/06/24 06:38:09;;;;;;;4.10;3.63;;;;;;;;;;5093431;28;20264;-73
2023/06/24 06:40:36;;;;;;;4.10;3.83;;;;;;;;;;5092946;28;20619;-74
2023/06/24 06:43:04;;;;;;;4.10;3.70;;;;;;;;;;5110709;27;20657;-70
2023/06/24 06:45:31;;;;;;;4.40;3.90;;;;;;;;;;5106144;28;20209;-68
2023/06/24 06:47:58;;;;;;;4.20;3.90;;;;;;;;;;5099744;28;20239;-70
2023/06/24 06:50:25;;;;;;;4.00;3.70;;;;;;;;;;5091788;28;20614;-78
2023/06/24 06:52:52;;;;;;;4.32;4.03;;;;;;;;;;5100493;28;20202;-71
2023/06/24 06:55:19;;;;;;;3.60;3.40;;;;;;;;;;5100391;28;20206;-72
2023/06/24 06:57:46;;;;;;;4.35;3.92;;;;;;;;;;5100187;28;20206;-76
2023/06/24 07:00:15;;;;;;;4.35;4.05;;;;;;;;;;5089997;28;20199;-75
2023/06/24 07:02:51;;;;;;;4.40;4.00;;;;;;;;;;5095702;28;20229;-73
2023/06/24 07:05:18;;;;;;;4.32;3.97;;;;;;;;;;5088538;28;20234;-73
2023/06/24 07:07:45;;;;;;;3.45;3.35;;;;;;;;;;5106462;28;20201;-75
2023/06/24 07:10:13;;;;;;;3.90;3.60;;;;;;;;;;5095939;28;20252;-75
2023/06/24 07:12:40;;;;;;;5.25;4.35;;;;;;;;;;5104532;28;20288;-75
2023/06/24 07:15:07;;;;;;;3.50;3.30;;;;;;;;;;5104513;28;20259;-73
2023/06/24 07:17:36;;;;;;;3.40;3.20;;;;;;;;;;5107524;28;20254;-74
2023/06/24 07:20:03;;;;;;;2.92;2.75;;;;;;;;;;5100732;28;20275;-74
2023/06/24 07:25:34;;;;;;;4.60;4.07;;;;;;;;;;5081983;28;20255;-72
2023/06/24 07:28:01;;;;;;;3.65;3.40;;;;;;;;;;5104711;28;20646;-72
2023/06/24 07:30:28;;;;;;;4.85;4.43;;;;;;;;;;5088523;28;21039;-72
2023/06/24 07:32:57;;;;;;;3.80;3.60;;;;;;;;;;5106289;28;20206;-72
2023/06/24 07:35:24;;;;;;;4.10;3.70;;;;;;;;;;5108291;28;20201;-71
2023/06/24 07:37:51;;;;;;;4.05;3.75;;;;;;;;;;5107154;28;20205;-72
2023/06/24 07:40:18;;;;;;;4.40;4.00;;;;;;;;;;5102268;28;20198;-72
2023/06/24 07:42:45;;;;;;;3.95;3.65;;;;;;;;;;5090884;28;20257;-72
2023/06/24 07:45:12;;;;;;;3.75;3.40;;;;;;;;;;5103664;28;20259;-71
2023/06/24 07:47:39;;;;;;;3.55;3.35;;;;;;;;;;5107852;28;20824;-72
2023/06/24 07:50:10;;;;;;;3.70;3.50;;;;;;;;;;5101905;28;20304;-68
2023/06/24 07:52:37;;;;;;;3.70;3.40;;;;;;;;;;5095458;28;20206;-70
2023/06/24 07:55:04;;;;;;;4.00;3.60;;;;;;;;;;5097129;28;20894;-70
2023/06/24 07:57:31;;;;;;;4.20;3.72;;;;;;;;;;5093198;28;20328;-70
2023/06/24 07:59:58;;;;;;;2.88;2.78;;;;;;;;;;5091996;28;20755;-70
2023/06/24 08:02:26;;;;;;;5.28;3.22;;;;;;;;;;5093676;28;20221;-69
2023/06/24 08:04:53;;;;;;;3.45;3.17;;;;;;;;;;5110106;28;20273;-70
2023/06/24 08:07:21;;;;;;;3.35;3.10;;;;;;;;;;5101120;28;20206;-70
2023/06/24 08:09:48;;;;;;;3.30;3.08;;;;;;;;;;5112010;28;20658;-70
2023/06/24 08:12:15;;;;;;;3.08;2.90;;;;;;;;;;5100414;28;20218;-70
2023/06/24 08:14:42;;;;;;;2.97;2.88;;;;;;;;;;5091889;28;20214;-70
2023/06/24 08:17:09;;;;;;;3.40;3.17;;;;;;;;;;5094235;28;20584;-70
2023/06/24 08:19:36;;;;;;;3.30;3.10;;;;;;;;;;5110621;28;20206;-70
2023/06/24 08:22:03;;;;;;;5.57;2.72;;;;;;;;;;5092285;28;20658;-72
2023/06/24 08:24:32;;;;;;;2.85;2.75;;;;;;;;;;5092368;28;20206;-71
2023/06/24 08:26:59;;;;;;;2.80;2.58;;;;;;;;;;5103274;28;20675;-71
2023/06/24 08:29:26;;;;;;;3.15;2.85;;;;;;;;;;5092341;28;20268;-70
2023/06/24 08:31:53;;;;;;;2.95;2.85;;;;;;;;;;5092193;28;20580;-71
2023/06/24 08:34:20;;;;;;;3.45;3.15;;;;;;;;;;5106452;28;20210;-70
2023/06/24 08:36:47;;;;;;;3.10;2.90;;;;;;;;;;5103828;28;20205;-70
2023/06/24 08:39:14;;;;;;;3.67;3.47;;;;;;;;;;5101953;28;20254;-70
2023/06/24 08:41:42;;;;;;;2.97;2.88;;;;;;;;;;5110788;28;20255;-71
2023/06/24 08:44:09;;;;;;;3.20;3.00;;;;;;;;;;5110672;28;20209;-70
2023/06/24 08:46:37;;;;;;;2.90;2.70;;;;;;;;;;5112601;28;20210;-69
2023/06/24 08:49:07;;;;;;;2.65;2.55;;;;;;;;;;5105454;28;20206;-68
2023/06/24 08:51:37;;;;;;;2.90;2.70;;;;;;;;;;5091437;28;20234;-68
2023/06/24 08:54:04;;;;;;;2.80;2.60;;;;;;;;;;5091869;28;20218;-68
2023/06/24 08:56:31;;;;;;;3.15;2.88;;;;;;;;;;5093584;28;20214;-69
2023/06/24 08:59:00;;;;;;;2.47;2.38;;;;;;;;;;5095039;28;20198;-68
2023/06/24 09:01:28;;;;;;;3.03;2.88;;;;;;;;;;5109727;28;20205;-68
2023/06/24 09:03:55;;;;;;;2.72;2.63;;;;;;;;;;5108168;28;20247;-68
2023/06/24 09:06:22;;;;;;;2.95;2.75;;;;;;;;;;5109698;28;20205;-68
2023/06/24 09:08:54;;;;;;;2.35;2.25;;;;;;;;;;5108409;28;20232;-69
2023/06/24 09:11:24;;;;;;;2.60;2.50;;;;;;;;;;5111841;28;20324;-68
2023/06/24 09:13:55;;;;;;;2.45;2.20;;;;;;;;;;5111857;28;20300;-68
2023/06/24 09:16:24;;;;;;;6.50;2.17;;;;;;;;;;5109662;28;20585;-69
2023/06/24 09:18:51;;;;;;;2.10;2.00;;;;;;;;;;5112006;28;20205;-69
2023/06/24 09:21:25;;;;;;;2.20;2.10;;;;;;;;;;5111690;28;20229;-68
2023/06/24 09:23:53;;;;;;;2.20;2.10;;;;;;;;;;5111945;28;20236;-68
2023/06/24 09:26:20;;;;;;;2.88;2.72;;;;;;;;;;5110685;28;20288;-68
2023/06/24 09:28:49;;;;;;;2.22;2.08;;;;;;;;;;5111551;28;20209;-68
2023/06/24 09:31:16;;;;;;;2.75;2.65;;;;;;;;;;5090966;28;20313;-68
2023/06/24 09:33:45;;;;;;;2.70;2.60;;;;;;;;;;5111281;28;20216;-69
2023/06/24 09:36:13;;;;;;;4.00;3.20;;;;;;;;;;5111411;28;20671;-68
2023/06/24 09:38:44;;;;;;;3.25;3.03;;;;;;;;;;5092184;28;20328;-69
2023/06/24 09:41:11;;;;;;;4.05;3.75;;;;;;;;;;5108395;28;20285;-68
2023/06/24 09:43:40;;;;;;;5.22;3.95;;;;;;;;;;5100345;28;20210;-68
2023/06/24 09:46:08;;;;;;;4.32;3.95;;;;;;;;;;5090867;28;20202;-67
2023/06/24 09:48:35;;;;;;;4.28;3.88;;;;;;;;;;5090656;28;20202;-67
2023/06/24 09:51:04;;;;;;;3.67;3.47;;;;;;;;;;5090338;28;20226;-68
2023/06/24 09:53:31;;;;;;;4.22;3.92;;;;;;;;;;5097034;28;20273;-68
2023/06/24 09:55:59;;;;;;;4.65;3.97;;;;;;;;;;5110654;28;20676;-67
2023/06/24 09:58:26;;;;;;;4.47;4.07;;;;;;;;;;5110098;28;20708;-65
2023/06/24 10:00:53;;;;;;;5.22;4.72;;;;;;;;;;5110433;28;20353;-81
2023/06/24 10:03:20;;;;;;;4.82;3.85;;;;;;;;;;5110510;28;20278;-69
2023/06/24 10:05:48;;;;;;;4.38;3.50;;;;;;;;;;5109094;28;20653;-74
2023/06/24 10:08:16;;;;;;;6.30;3.42;;;;;;;;;;5105145;28;20267;-74
2023/06/24 10:10:43;;;;;;;4.40;3.75;;;;;;;;;;5107834;28;20239;-74
2023/06/24 10:13:10;;;;;;;5.55;2.97;;;;;;;;;;5108942;28;20687;-75
2023/06/24 10:15:37;;;;;;;2.67;2.47;;;;;;;;;;5109347;28;20243;-76
2023/06/24 10:18:04;;;;;;;2.95;2.85;;;;;;;;;;5110206;28;20253;-77
2023/06/24 10:20:38;;;;;;;2.85;2.72;;;;;;;;;;5109631;28;20213;-76
2023/06/24 10:23:07;;;;;;;2.47;2.38;;;;;;;;;;5095589;28;20281;-76
2023/06/24 10:25:38;;;;;;;2.88;2.67;;;;;;;;;;5101750;28;20205;-77
2023/06/24 10:28:05;;;;;;;2.92;2.80;;;;;;;;;;5103998;28;20304;-76
2023/06/24 10:30:33;;;;;;;2.72;2.63;;;;;;;;;;5109715;28;20210;-77
2023/06/24 10:33:00;;;;;;;2.60;2.47;;;;;;;;;;5109670;28;20232;-76
2023/06/24 10:35:29;;;;;;;2.90;2.70;;;;;;;;;;5109809;28;20216;-76
2023/06/24 10:37:57;;;;;;;3.40;2.72;;;;;;;;;;5108565;28;20213;-77
2023/06/24 10:40:38;;;;;;;3.00;2.80;;;;;;;;;;5088925;28;20206;-76
2023/06/24 10:43:26;;;;;;;2.78;2.60;;;;;;;;;;5087875;28;20296;-76
2023/06/24 10:45:54;;;;;;;2.53;2.42;;;;;;;;;;5088024;28;20948;-76
2023/06/24 10:48:21;;;;;;;2.42;2.33;;;;;;;;;;5087801;28;20215;-76
2023/06/24 10:50:49;;;;;;;2.60;2.40;;;;;;;;;;5091070;28;20205;-76
2023/06/24 10:53:18;;;;;;;2.33;2.10;;;;;;;;;;5108169;28;20229;-76
2023/06/24 10:55:47;;;;;;;3.63;2.38;;;;;;;;;;5099403;28;20198;-76
2023/06/24 10:58:15;;;;;;;3.22;2.33;;;;;;;;;;5087981;28;20696;-76
2023/06/24 11:00:43;;;;;;;1.85;1.75;;;;;;;;;;5106553;28;20548;-76
2023/06/24 11:03:10;;;;;;;1.92;1.85;;;;;;;;;;5107871;28;20225;-75
2023/06/24 11:05:39;;;;;;;1.80;1.80;;;;;;;;;;5108329;28;20396;-76
2023/06/24 11:08:06;;;;;;;2.70;2.58;;;;;;;;;;5107469;28;20224;-76
2023/06/24 11:10:33;;;;;;;2.22;2.13;;;;;;;;;;5108731;28;20236;-76
2023/06/24 11:13:07;;;;;;;2.50;2.40;;;;;;;;;;5107742;28;20608;-76
2023/06/24 11:15:34;;;;;;;2.85;2.45;;;;;;;;;;5108367;28;20213;-76
2023/06/24 11:18:04;;;;;;;1.95;1.92;;;;;;;;;;5107646;28;20317;-76
2023/06/24 11:20:31;;;;;;;2.63;2.47;;;;;;;;;;5108615;28;20771;-75
2023/06/24 11:23:03;;;;;;;2.33;2.22;;;;;;;;;;5111182;28;20201;-78
2023/06/24 11:25:39;;;;;;;2.20;2.10;;;;;;;;;;5108645;28;20213;-77
2023/06/24 11:28:13;;;;;;;2.45;2.35;;;;;;;;;;5114308;28;20193;-78
2023/06/24 11:30:40;;;;;;;2.30;2.20;;;;;;;;;;5096742;28;20272;-75
2023/06/24 11:33:07;;;;;;;2.08;2.03;;;;;;;;;;5092958;28;20226;-67
2023/06/24 11:35:35;;;;;;;2.13;2.13;;;;;;;;;;5087868;28;20684;-70
2023/06/24 11:38:03;;;;;;;2.03;1.92;;;;;;;;;;5090580;28;20212;-71
2023/06/24 11:40:32;;;;;;;2.60;2.17;;;;;;;;;;5088780;28;20730;-68
2023/06/24 11:42:59;;;;;;;2.28;2.10;;;;;;;;;;5092764;28;20285;-68
2023/06/24 11:45:28;;;;;;;1.90;1.90;;;;;;;;;;5096094;28;20205;-68
2023/06/24 11:48:04;;;;;;;2.13;2.00;;;;;;;;;;5108191;28;20217;-69
2023/06/24 11:50:31;;;;;;;2.60;2.50;;;;;;;;;;5110425;28;20197;-69
2023/06/24 11:52:59;;;;;;;2.25;2.15;;;;;;;;;;5096297;28;20635;-68
2023/06/24 11:55:27;;;;;;;2.13;2.03;;;;;;;;;;5090173;28;20206;-70
2023/06/24 11:57:58;;;;;;;2.10;2.00;;;;;;;;;;5094242;28;20209;-69
2023/06/24 12:00:26;;;;;;;2.15;2.05;;;;;;;;;;5110621;28;20551;-69
2023/06/24 12:02:58;;;;;;;2.40;2.30;;;;;;;;;;5095228;28;20320;-69
2023/06/24 12:05:28;;;;;;;2.00;1.92;;;;;;;;;;5105532;28;20237;-70
2023/06/24 12:07:56;;;;;;;2.30;2.20;;;;;;;;;;5107513;28;20209;-70
2023/06/24 12:10:23;;;;;;;2.42;2.25;;;;;;;;;;5105752;28;20209;-69
2023/06/24 12:12:50;;;;;;;2.13;1.98;;;;;;;;;;5106993;28;20245;-69
2023/06/24 12:15:17;;;;;;;1.90;1.90;;;;;;;;;;5100807;28;20213;-69
2023/06/24 12:17:44;;;;;;;1.85;1.85;;;;;;;;;;5106434;28;20649;-69
2023/06/24 12:20:14;;;;;;;2.92;2.47;;;;;;;;;;5106476;28;20213;-69
2023/06/24 12:22:41;;;;;;;2.20;2.10;;;;;;;;;;5104229;28;21130;-69
2023/06/24 12:25:09;;;;;;;2.28;2.17;;;;;;;;;;5106121;28;20262;-69
2023/06/24 12:27:36;;;;;;;2.50;2.40;;;;;;;;;;5107214;28;20319;-69
2023/06/24 12:30:03;;;;;;;2.38;2.38;;;;;;;;;;5105931;28;20639;-69
2023/06/24 12:32:30;;;;;;;2.28;2.17;;;;;;;;;;5106555;28;20229;-68
2023/06/24 12:34:57;;;;;;;2.13;2.13;;;;;;;;;;5106633;28;20221;-68
2023/06/24 12:37:25;;;;;;;2.60;2.50;;;;;;;;;;5106430;28;20694;-68
2023/06/24 12:39:52;;;;;;;2.10;2.00;;;;;;;;;;5089650;28;20210;-68
2023/06/24 12:42:19;;;;;;;2.10;2.00;;;;;;;;;;5108306;28;20423;-68
2023/06/24 12:44:46;;;;;;;2.20;2.10;;;;;;;;;;5109212;28;20572;-74
2023/06/24 12:47:13;;;;;;;2.08;1.98;;;;;;;;;;5108794;28;20308;-75
2023/06/24 12:49:40;;;;;;;1.92;1.92;;;;;;;;;;5110258;28;20197;-75
2023/06/24 12:52:07;;;;;;;2.20;2.20;;;;;;;;;;5109874;28;20240;-75
2023/06/24 12:54:36;;;;;;;2.20;2.10;;;;;;;;;;5103342;28;20194;-74
2023/06/24 12:57:03;;;;;;;2.50;2.40;;;;;;;;;;5090742;28;20690;-75
2023/06/24 12:59:30;;;;;;;2.72;2.58;;;;;;;;;;5107079;28;20209;-74
2023/06/24 13:01:57;;;;;;;2.80;2.60;;;;;;;;;;5111717;28;20201;-74
2023/06/24 13:04:24;;;;;;;2.53;2.35;;;;;;;;;;5111513;28;20237;-74
2023/06/24 13:06:53;;;;;;;2.35;2.25;;;;;;;;;;5112312;28;20212;-75
2023/06/24 13:09:20;;;;;;;2.38;2.28;;;;;;;;;;5099641;28;20202;-75
2023/06/24 13:11:49;;;;;;;2.28;2.17;;;;;;;;;;5091169;28;20587;-76
2023/06/24 13:14:16;;;;;;;2.28;2.17;;;;;;;;;;5101521;28;20445;-77
2023/06/24 13:16:43;;;;;;;2.03;2.00;;;;;;;;;;5104197;28;20672;-77
2023/06/24 13:19:10;;;;;;;2.30;2.20;;;;;;;;;;5094559;28;20205;-77
2023/06/24 13:21:37;;;;;;;2.28;2.17;;;;;;;;;;5111270;28;20671;-78
2023/06/24 13:24:04;;;;;;;2.38;2.28;;;;;;;;;;5110783;28;20258;-77
2023/06/24 13:26:31;;;;;;;2.70;2.47;;;;;;;;;;5111163;28;20622;-77
2023/06/24 13:28:59;;;;;;;3.33;2.47;;;;;;;;;;5092113;28;20297;-76
2023/06/24 13:31:26;;;;;;;2.28;2.17;;;;;;;;;;5088562;28;20673;-70
2023/06/24 13:33:53;;;;;;;2.17;2.08;;;;;;;;;;5088227;28;20747;-69
2023/06/24 13:36:32;;;;;;;1.73;1.73;;;;;;;;;;5090590;28;20256;-72
2023/06/24 13:38:59;;;;;;;2.22;2.22;;;;;;;;;;5094815;28;20281;-75
2023/06/24 13:41:29;;;;;;;2.38;2.28;;;;;;;;;;5104526;28;20209;-75
2023/06/24 13:43:56;;;;;;;2.38;2.28;;;;;;;;;;5108145;28;20262;-75
2023/06/24 13:46:24;;;;;;;2.20;2.10;;;;;;;;;;5101012;28;20203;-80
2023/06/24 13:48:51;;;;;;;2.10;2.00;;;;;;;;;;5091608;28;20206;-79
2023/06/24 13:51:19;;;;;;;2.22;2.15;;;;;;;;;;5109480;28;20217;-81
2023/06/24 13:53:46;;;;;;;2.47;2.40;;;;;;;;;;5110817;28;20276;-80
2023/06/24 13:56:13;;;;;;;2.33;2.22;;;;;;;;;;5103524;28;20194;-81
2023/06/24 13:58:40;;;;;;;1.77;1.77;;;;;;;;;;5103948;28;20279;-81
2023/06/24 14:01:07;;;;;;;2.38;2.28;;;;;;;;;;5110883;28;20556;-81
2023/06/24 14:03:36;;;;;;;2.47;2.38;;;;;;;;;;5110526;28;20208;-81
2023/06/24 14:06:03;;;;;;;2.40;2.30;;;;;;;;;;5111178;28;20220;-81
2023/06/24 14:08:30;;;;;;;2.13;2.05;;;;;;;;;;5111191;28;20329;-81
2023/06/24 14:10:57;;;;;;;2.08;1.98;;;;;;;;;;5110757;28;20618;-81
2023/06/24 14:13:24;;;;;;;3.92;2.33;;;;;;;;;;5110679;28;20831;-81
2023/06/24 14:15:51;;;;;;;2.20;2.03;;;;;;;;;;5110672;28;20258;-79
2023/06/24 14:18:18;;;;;;;2.28;2.10;;;;;;;;;;5098563;28;20213;-77
2023/06/24 14:20:47;;;;;;;2.15;2.13;;;;;;;;;;5085846;28;20289;-79
2023/06/24 14:23:14;;;;;;;2.40;2.30;;;;;;;;;;5088009;28;20216;-80
2023/06/24 14:25:41;;;;;;;3.63;2.47;;;;;;;;;;5107289;28;20281;-78
2023/06/24 14:28:08;;;;;;;2.50;2.38;;;;;;;;;;5110114;28;20209;-82
2023/06/24 14:30:36;;;;;;;2.47;2.38;;;;;;;;;;5109623;28;20238;-73
2023/06/24 14:33:13;;;;;;;2.40;2.30;;;;;;;;;;5110367;28;20251;-82
2023/06/24 14:35:40;;;;;;;2.80;2.60;;;;;;;;;;5105149;28;20295;-78
2023/06/24 14:38:09;;;;;;;2.33;2.22;;;;;;;;;;5102362;28;20201;-80
2023/06/24 14:40:36;;;;;;;2.53;2.42;;;;;;;;;;5109509;28;20258;-79
2023/06/24 14:43:03;;;;;;;2.83;2.72;;;;;;;;;;5109638;28;20220;-81
2023/06/24 14:45:30;;;;;;;2.55;2.45;;;;;;;;;;5109215;28;20258;-79
2023/06/24 14:47:57;;;;;;;2.85;2.63;;;;;;;;;;5108992;28;20707;-79
2023/06/24 14:50:25;;;;;;;2.45;2.28;;;;;;;;;;5090112;28;20206;-80